Airfield :
LOGIN :

Register | Disclaimer

   EN    FR    IT 

 










Legend :    VFR   Marginal VFR   IFR   Intensive IFR   Very Intensive IFR
Visi :
Ceiling :
>= 8 km
>= 3000ft
5 to 8 km
1000 to 3000 ft
1500m to 5 km
500 to 1000 ft
800 to 1500m
200 to 500 ft
< 800m
< 200 ft
Symbols :   Thunderstorms  Fog  Heavy snow  Heavy precipitations  Wind > 20 kt
SIGMETs :     Misc.  Thunderstorms  Icing  Turbulence  Mountain Waves  Volcanic Ashes






- Airport Elevation : 3368 ft


LSGC - Les Eplatures

CURRENT METAR :
  • 232250Z AUTO VRB01KT 9999 NCD 08/07 Q1014

EXPIRED METARs :
  • 232220Z AUTO 22003KT 180V250 9999 NSC 09/08 Q1013
  • 232150Z AUTO 24003KT 9999 NCD 09/08 Q1013
  • 232120Z AUTO 21005KT 170V230 9999 NSC 10/09 Q1013
  • 232050Z AUTO 22006KT 190V270 CAVOK 11/08 Q1013
  • 232020Z AUTO 23006KT 9999 NSC 12/08 Q1013

TAF TAF LSGC
Valid from the 23 at 15:00 until the 24 at 00:00 UTC


231425Z 2315/2324 VRB03KT 9999 FEW040 BKN140
BECMG 2319/2321 15015G30KT



MET'MAP, your aeronautical weather chart ! - Copyright ORBIFLY December 2007 - Disclaimer

ORBIFLY MET'MAP TEAM :

Programming & Development : Alexandra Zaïnal
Concept & Development : Baudouin d'Aumeries
Co-Development & Prog : Marc-Olivier Méhu
Technical & hardware support : Manuel Goepfert

Contact : metmap@orbifly.com




SOURCES & CREDITS :

   NOAA